Time;durP1;ratioP1;P1;durP2;ratioP2;P2;SDS_P1;SDS_P2;PMS_P1;PMS_P2;Temp;Humidity;BMP_temperature;BMP_pressure;BME280_temperature;BME280_humidity;BME280_pressure;Samples;Min_cycle;Max_cycle;Signal;HPM_P1;HPM_P2
2023/07/16 00:02:25;;;;;;;19.05;14.98;;;19.20;99.90;;;;;;5072945;28;20197;-76
2023/07/16 00:04:52;;;;;;;14.65;13.23;;;19.20;99.90;;;;;;5073237;28;20258;-76
2023/07/16 00:07:18;;;;;;;16.58;14.30;;;19.30;99.90;;;;;;5073018;28;20603;-76
2023/07/16 00:09:45;;;;;;;16.42;14.27;;;19.30;99.90;;;;;;5072914;28;20729;-76
2023/07/16 00:12:11;;;;;;;18.52;15.13;;;19.30;99.90;;;;;;5072768;28;20197;-77
2023/07/16 00:14:39;;;;;;;17.52;15.60;;;19.30;99.90;;;;;;5072909;28;20242;-76
2023/07/16 00:17:06;;;;;;;16.33;14.40;;;19.30;99.90;;;;;;5072717;28;20228;-77
2023/07/16 00:19:33;;;;;;;16.70;14.90;;;19.30;99.90;;;;;;5072948;28;20200;-76
2023/07/16 00:21:59;;;;;;;19.48;15.25;;;19.30;99.90;;;;;;5072672;28;20230;-75
2023/07/16 00:24:26;;;;;;;19.80;14.90;;;19.30;99.90;;;;;;5072840;28;20197;-76
2023/07/16 00:26:53;;;;;;;22.42;15.48;;;19.30;99.90;;;;;;5072871;28;20227;-77
2023/07/16 00:29:20;;;;;;;18.85;14.85;;;19.20;99.90;;;;;;5072724;28;20197;-76
2023/07/16 00:31:48;;;;;;;14.57;13.07;;;19.30;99.90;;;;;;5072680;28;20197;-75
2023/07/16 00:34:14;;;;;;;13.10;11.70;;;19.20;99.90;;;;;;5072577;28;20549;-74
2023/07/16 00:36:41;;;;;;;17.58;11.50;;;19.00;99.90;;;;;;5072526;28;20274;-72
2023/07/16 00:39:08;;;;;;;14.18;11.00;;;19.00;99.90;;;;;;5072694;28;20197;-73
2023/07/16 00:41:35;;;;;;;10.57;9.57;;;18.90;99.90;;;;;;5072507;28;20204;-73
2023/07/16 00:44:01;;;;;;;12.15;10.20;;;18.70;99.90;;;;;;5072518;28;20247;-76
2023/07/16 00:46:29;;;;;;;10.70;9.63;;;18.70;99.90;;;;;;5072687;28;20231;-75
2023/07/16 00:48:57;;;;;;;10.20;8.98;;;18.80;99.90;;;;;;5072601;28;20205;-76
2023/07/16 00:51:26;;;;;;;9.20;7.70;;;18.60;99.90;;;;;;5072630;28;20201;-76
2023/07/16 00:53:53;;;;;;;8.35;7.40;;;18.40;99.90;;;;;;5072343;28;20205;-76
2023/07/16 00:56:20;;;;;;;7.43;6.68;;;18.40;99.90;;;;;;5072245;28;20236;-74
2023/07/16 00:58:47;;;;;;;10.25;6.72;;;18.30;99.90;;;;;;5072255;28;20201;-73
2023/07/16 01:01:13;;;;;;;7.78;6.80;;;18.20;99.90;;;;;;5072428;28;20201;-72
2023/07/16 01:03:41;;;;;;;7.82;7.00;;;18.30;99.90;;;;;;5072437;28;20689;-73
2023/07/16 01:06:15;;;;;;;7.95;6.63;;;18.30;99.90;;;;;;5072874;28;20247;-72
2023/07/16 01:08:45;;;;;;;7.15;5.75;;;18.30;99.90;;;;;;5076282;28;20226;-70
2023/07/16 01:11:13;;;;;;;9.48;5.82;;;18.20;99.90;;;;;;5076182;28;20231;-71
2023/07/16 01:13:41;;;;;;;7.75;6.15;;;18.10;99.90;;;;;;5076311;28;20197;-71
2023/07/16 01:16:18;;;;;;;7.80;5.63;;;18.10;99.90;;;;;;5075927;28;20647;-71
2023/07/16 01:18:45;;;;;;;10.52;5.93;;;18.00;99.90;;;;;;5076555;28;20201;-72
2023/07/16 01:21:13;;;;;;;7.65;6.00;;;18.10;99.90;;;;;;5075982;28;20254;-71
2023/07/16 01:24:05;;;;;;;7.25;5.38;;;18.00;99.90;;;;;;5075888;28;20197;-71
2023/07/16 01:26:52;;;;;;;6.65;5.03;;;17.90;99.90;;;;;;5076011;28;20200;-72
2023/07/16 01:29:42;;;;;;;7.65;5.85;;;18.00;99.90;;;;;;5075882;28;20201;-71
2023/07/16 01:32:12;;;;;;;6.75;5.50;;;18.00;99.90;;;;;;5071649;28;20571;-71
2023/07/16 01:34:39;;;;;;;7.78;6.55;;;17.90;99.90;;;;;;5075886;28;20227;-72
2023/07/16 01:37:07;;;;;;;7.22;5.43;;;18.00;99.90;;;;;;5075799;28;20278;-71
2023/07/16 01:39:33;;;;;;;6.30;5.68;;;17.90;99.90;;;;;;5075661;28;20270;-71
2023/07/16 01:42:00;;;;;;;8.00;5.72;;;18.00;99.90;;;;;;5075604;28;20201;-72
2023/07/16 01:44:27;;;;;;;6.72;6.03;;;17.90;99.90;;;;;;5075750;28;20205;-72
2023/07/16 01:47:06;;;;;;;6.40;5.65;;;17.90;99.90;;;;;;5075754;28;20280;-72
2023/07/16 01:49:33;;;;;;;9.13;6.22;;;17.90;99.90;;;;;;5075452;28;20211;-72
2023/07/16 01:52:00;;;;;;;6.20;5.60;;;18.00;99.90;;;;;;5075474;28;20244;-73
2023/07/16 01:54:27;;;;;;;6.72;5.22;;;17.90;99.90;;;;;;5075419;28;20197;-73
2023/07/16 01:56:54;;;;;;;5.47;4.90;;;17.90;99.90;;;;;;5075041;28;20229;-74
2023/07/16 01:59:20;;;;;;;7.82;5.40;;;17.80;99.90;;;;;;5075477;28;20201;-75
2023/07/16 02:01:47;;;;;;;5.85;5.18;;;17.80;99.90;;;;;;5075420;28;20197;-75
2023/07/16 02:04:15;;;;;;;6.85;4.90;;;17.90;99.90;;;;;;5075321;28;20259;-75
2023/07/16 02:06:42;;;;;;;7.38;5.20;;;17.80;99.90;;;;;;5075040;28;20262;-75
2023/07/16 02:09:09;;;;;;;5.43;4.93;;;17.80;99.90;;;;;;5075099;28;20630;-76
2023/07/16 02:11:36;;;;;;;6.18;4.47;;;17.80;99.90;;;;;;5075051;28;20200;-75
2023/07/16 02:14:02;;;;;;;6.18;4.75;;;17.80;99.90;;;;;;5075009;28;20194;-76
2023/07/16 02:16:29;;;;;;;5.68;4.10;;;17.80;99.90;;;;;;5075060;28;20258;-77
2023/07/16 02:18:55;;;;;;;6.70;4.53;;;17.90;99.90;;;;;;5073947;28;20198;-76
2023/07/16 02:21:23;;;;;;;7.85;4.53;;;17.80;99.90;;;;;;5075003;28;20603;-77
2023/07/16 02:23:50;;;;;;;4.88;4.45;;;17.80;99.90;;;;;;5074798;28;20197;-77
2023/07/16 02:26:17;;;;;;;5.75;3.80;;;17.80;99.90;;;;;;5074715;28;20251;-77
2023/07/16 02:28:43;;;;;;;4.85;4.28;;;17.80;99.90;;;;;;5075048;28;20201;-77
2023/07/16 02:31:10;;;;;;;3.78;3.42;;;17.70;99.90;;;;;;5074825;28;20197;-76
2023/07/16 02:33:37;;;;;;;5.10;3.60;;;17.70;99.90;;;;;;5074845;28;20242;-77
2023/07/16 02:36:04;;;;;;;7.00;3.97;;;17.70;99.90;;;;;;5074758;28;20205;-77
2023/07/16 02:38:32;;;;;;;4.47;4.07;;;17.60;99.90;;;;;;5074423;28;20220;-77
2023/07/16 02:40:58;;;;;;;6.05;3.85;;;17.70;99.90;;;;;;5074793;28;20205;-77
2023/07/16 02:43:25;;;;;;;4.00;3.60;;;17.70;99.90;;;;;;5074447;28;20660;-78
2023/07/16 02:45:51;;;;;;;6.45;4.00;;;17.70;99.90;;;;;;5074341;28;20197;-78
2023/07/16 02:48:18;;;;;;;4.40;4.00;;;17.70;99.90;;;;;;5074347;28;20197;-79
2023/07/16 02:50:45;;;;;;;5.05;3.88;;;17.70;99.90;;;;;;5074505;28;20248;-79
2023/07/16 02:53:11;;;;;;;6.13;3.40;;;17.70;99.90;;;;;;5074112;28;20197;-79
2023/07/16 02:55:39;;;;;;;4.00;3.33;;;17.60;99.90;;;;;;5074498;28;20209;-80
2023/07/16 02:58:06;;;;;;;3.42;3.13;;;17.50;99.90;;;;;;5073968;28;20708;-80
2023/07/16 03:00:33;;;;;;;3.58;3.20;;;17.60;99.90;;;;;;5074278;28;20541;-80
2023/07/16 03:03:00;;;;;;;4.35;3.65;;;17.50;99.90;;;;;;5074345;28;20197;-81
2023/07/16 03:05:27;;;;;;;5.82;3.70;;;17.60;99.90;;;;;;5074136;28;20193;-81
2023/07/16 03:07:54;;;;;;;5.78;3.65;;;17.60;99.90;;;;;;5073951;28;20653;-81
2023/07/16 03:10:21;;;;;;;4.63;3.47;;;17.50;99.90;;;;;;5074253;28;20197;-82
2023/07/16 03:12:49;;;;;;;3.40;3.13;;;17.40;99.90;;;;;;5074005;28;20596;-82
2023/07/16 03:15:15;;;;;;;5.18;3.22;;;17.40;99.90;;;;;;5074171;28;20197;-82
2023/07/16 03:17:42;;;;;;;3.95;3.10;;;17.30;99.90;;;;;;5082955;28;20225;-82
2023/07/16 03:20:10;;;;;;;2.83;2.53;;;17.00;99.90;;;;;;5073842;28;20201;-80
2023/07/16 03:22:36;;;;;;;3.70;2.60;;;16.70;99.90;;;;;;5073761;28;20201;-82
2023/07/16 03:25:03;;;;;;;5.05;2.65;;;16.50;99.90;;;;;;5073762;28;20246;-82
2023/07/16 03:27:30;;;;;;;2.92;2.30;;;16.50;99.90;;;;;;5073773;28;20338;-81
2023/07/16 03:29:58;;;;;;;3.35;2.58;;;16.40;99.90;;;;;;5073145;28;20197;-81
2023/07/16 03:32:25;;;;;;;4.78;2.45;;;16.40;99.90;;;;;;5073541;28;20198;-82
2023/07/16 03:34:51;;;;;;;3.00;2.33;;;16.30;99.90;;;;;;5073482;28;20607;-82
2023/07/16 03:37:18;;;;;;;4.45;2.20;;;16.20;99.90;;;;;;5073780;28;20274;-82
2023/07/16 03:39:44;;;;;;;4.03;2.03;;;16.10;99.90;;;;;;5073638;28;20550;-83
2023/07/16 03:42:11;;;;;;;4.15;2.40;;;16.10;99.90;;;;;;5073806;28;20201;-84
2023/07/16 03:44:38;;;;;;;3.97;2.38;;;16.10;99.90;;;;;;5074045;28;20255;-84
2023/07/16 03:47:06;;;;;;;5.13;2.28;;;16.10;99.90;;;;;;5073836;28;20262;-85
2023/07/16 03:49:32;;;;;;;2.85;2.40;;;16.10;99.90;;;;;;5073900;28;20247;-85
2023/07/16 03:51:59;;;;;;;3.05;2.65;;;16.10;99.90;;;;;;5074447;28;20615;-85
2023/07/16 03:54:26;;;;;;;2.63;2.30;;;16.10;99.90;;;;;;5074291;28;20201;-86
2023/07/16 03:56:52;;;;;;;4.27;2.60;;;16.10;99.90;;;;;;5073243;28;20233;-72
2023/07/16 03:59:19;;;;;;;4.32;2.10;;;16.10;99.90;;;;;;5072742;28;20553;-73
2023/07/16 04:01:46;;;;;;;3.10;2.55;;;16.10;99.90;;;;;;5072924;28;20668;-72
2023/07/16 04:04:13;;;;;;;5.05;2.75;;;16.00;99.90;;;;;;5073207;28;20258;-73
2023/07/16 04:06:40;;;;;;;3.47;2.50;;;16.00;99.90;;;;;;5073128;28;20254;-74
2023/07/16 04:09:07;;;;;;;3.60;2.60;;;16.00;99.90;;;;;;5073311;28;20278;-73
2023/07/16 04:11:33;;;;;;;2.90;2.30;;;16.00;99.90;;;;;;5072941;28;20610;-74
2023/07/16 04:14:00;;;;;;;7.03;2.67;;;16.00;99.90;;;;;;5072569;28;20196;-74
2023/07/16 04:16:26;;;;;;;3.97;2.53;;;16.00;99.90;;;;;;5072876;28;20262;-73
2023/07/16 04:18:53;;;;;;;3.23;2.57;;;16.00;99.90;;;;;;5072744;28;20224;-74
2023/07/16 04:21:21;;;;;;;4.10;2.67;;;16.10;99.90;;;;;;5072939;28;20259;-73
2023/07/16 04:23:48;;;;;;;3.25;2.38;;;16.20;99.90;;;;;;5072852;28;20197;-73
2023/07/16 04:26:14;;;;;;;8.48;2.65;;;16.20;99.90;;;;;;5072708;28;20595;-74
2023/07/16 04:28:41;;;;;;;5.45;2.55;;;16.30;99.90;;;;;;5072728;28;20231;-73
2023/07/16 04:31:07;;;;;;;3.45;2.67;;;16.30;99.90;;;;;;5072884;28;20197;-74
2023/07/16 04:33:34;;;;;;;3.03;2.40;;;16.50;99.90;;;;;;5072942;28;20204;-74
2023/07/16 04:36:01;;;;;;;3.83;2.25;;;16.50;99.90;;;;;;5072680;28;20258;-74
2023/07/16 04:38:28;;;;;;;3.17;2.08;;;16.60;99.90;;;;;;5072612;28;20224;-74
2023/07/16 04:40:55;;;;;;;3.38;2.40;;;16.70;99.90;;;;;;5072810;28;20204;-74
2023/07/16 04:43:22;;;;;;;4.18;2.25;;;16.80;99.90;;;;;;5076764;28;20656;-74
2023/07/16 04:45:48;;;;;;;3.13;2.38;;;16.90;99.90;;;;;;5076552;28;20193;-75
2023/07/16 04:48:15;;;;;;;5.78;2.30;;;16.90;99.90;;;;;;5076791;28;20534;-73
2023/07/16 04:50:42;;;;;;;4.38;2.38;;;17.00;99.90;;;;;;5076655;28;20258;-75
2023/07/16 04:53:08;;;;;;;4.57;2.40;;;17.00;99.90;;;;;;5076594;28;20200;-76
2023/07/16 04:55:40;;;;;;;5.55;2.22;;;17.10;99.90;;;;;;5076517;28;20212;-76
2023/07/16 04:58:07;;;;;;;3.08;2.47;;;17.10;99.90;;;;;;5076502;28;20680;-75
2023/07/16 05:00:33;;;;;;;3.00;2.20;;;17.00;99.90;;;;;;5076450;28;20200;-76
2023/07/16 05:03:00;;;;;;;3.67;2.38;;;17.10;99.90;;;;;;5076667;28;20209;-76
2023/07/16 05:05:27;;;;;;;3.42;2.38;;;17.00;99.90;;;;;;5076518;28;20201;-76
2023/07/16 05:07:53;;;;;;;4.78;2.25;;;17.00;99.90;;;;;;5076516;28;20205;-76
2023/07/16 05:10:20;;;;;;;5.28;2.35;;;17.00;99.90;;;;;;5076339;28;20201;-75
2023/07/16 05:12:48;;;;;;;4.20;2.45;;;17.10;99.90;;;;;;5076114;28;20205;-75
2023/07/16 05:15:15;;;;;;;5.05;2.55;;;17.20;99.90;;;;;;5076229;28;20196;-76
2023/07/16 05:17:42;;;;;;;3.25;2.28;;;17.30;99.90;;;;;;5075755;28;20298;-76
2023/07/16 05:20:09;;;;;;;3.53;2.45;;;17.30;99.90;;;;;;5076085;28;20250;-76
2023/07/16 05:22:36;;;;;;;6.97;2.42;;;17.30;99.90;;;;;;5076054;28;20201;-76
2023/07/16 05:25:03;;;;;;;4.22;2.10;;;17.20;99.90;;;;;;5075896;28;20254;-76
2023/07/16 05:27:30;;;;;;;2.80;2.10;;;17.20;99.90;;;;;;5075746;28;20201;-76
2023/07/16 05:29:58;;;;;;;6.28;2.40;;;17.20;99.90;;;;;;5076059;28;20574;-76
2023/07/16 05:32:25;;;;;;;2.55;2.10;;;17.30;99.90;;;;;;5075834;28;20267;-75
2023/07/16 05:34:51;;;;;;;5.85;2.13;;;17.30;99.90;;;;;;5075867;28;20201;-76
2023/07/16 05:37:18;;;;;;;6.35;2.05;;;17.50;99.90;;;;;;5075742;28;20201;-76
2023/07/16 05:39:44;;;;;;;4.75;2.30;;;17.60;99.90;;;;;;5075682;28;20197;-75
2023/07/16 05:42:11;;;;;;;4.28;2.30;;;17.70;99.90;;;;;;5075787;28;20255;-76
2023/07/16 05:44:38;;;;;;;3.38;2.70;;;17.80;99.90;;;;;;5075592;28;20197;-76
2023/07/16 05:47:06;;;;;;;4.70;2.22;;;17.80;99.90;;;;;;5075580;28;20197;-75
2023/07/16 05:49:33;;;;;;;5.03;2.67;;;17.90;99.90;;;;;;5075077;28;20672;-75
2023/07/16 05:51:59;;;;;;;3.92;2.30;;;17.80;99.90;;;;;;5075527;28;20201;-76
2023/07/16 05:54:26;;;;;;;5.25;2.60;;;17.70;99.90;;;;;;5075517;28;20201;-76
2023/07/16 05:56:53;;;;;;;5.85;2.40;;;17.70;99.90;;;;;;5075257;28;20290;-76
2023/07/16 05:59:19;;;;;;;5.50;2.58;;;17.70;99.90;;;;;;5075443;28;20260;-76
2023/07/16 06:01:47;;;;;;;4.53;2.10;;;17.90;99.90;;;;;;5075603;28;20197;-77
2023/07/16 06:04:15;;;;;;;4.82;2.33;;;17.80;99.90;;;;;;5075282;28;20721;-76
2023/07/16 06:06:42;;;;;;;5.07;2.80;;;17.80;99.90;;;;;;5075065;28;20250;-76
2023/07/16 06:09:08;;;;;;;4.13;2.55;;;17.80;99.90;;;;;;5075091;28;20251;-76
2023/07/16 06:11:35;;;;;;;5.07;2.58;;;17.90;99.90;;;;;;5075227;28;20197;-76
2023/07/16 06:14:01;;;;;;;5.88;2.83;;;17.80;99.90;;;;;;5075245;28;20196;-76
2023/07/16 06:16:28;;;;;;;7.97;2.35;;;17.70;99.90;;;;;;5075205;28;20274;-76
2023/07/16 06:18:55;;;;;;;3.97;2.90;;;17.70;99.90;;;;;;5074817;28;20240;-76
2023/07/16 06:21:23;;;;;;;6.95;2.70;;;17.70;99.90;;;;;;5074875;28;20247;-75
2023/07/16 06:23:49;;;;;;;6.82;2.75;;;17.70;99.90;;;;;;5074872;28;20197;-76
2023/07/16 06:26:16;;;;;;;7.60;2.92;;;17.80;99.90;;;;;;5075036;28;20201;-76
2023/07/16 06:28:42;;;;;;;5.38;2.50;;;17.70;99.90;;;;;;5074812;28;20197;-76
2023/07/16 06:31:09;;;;;;;8.10;2.60;;;17.60;99.90;;;;;;5074888;28;20204;-76
2023/07/16 06:33:36;;;;;;;5.70;2.50;;;17.70;99.90;;;;;;5074589;28;20197;-77
2023/07/16 06:36:02;;;;;;;7.45;2.75;;;17.70;99.90;;;;;;5074736;28;20662;-76
2023/07/16 06:38:30;;;;;;;4.72;2.70;;;17.70;99.90;;;;;;5074434;28;20224;-76
2023/07/16 06:40:57;;;;;;;6.45;2.63;;;17.70;99.90;;;;;;5074616;28;20204;-76
2023/07/16 06:43:24;;;;;;;8.55;2.70;;;17.80;99.90;;;;;;5074526;28;20200;-75
2023/07/16 06:45:51;;;;;;;7.20;2.38;;;17.60;99.90;;;;;;5074496;28;20201;-76
2023/07/16 06:48:18;;;;;;;6.85;2.83;;;17.60;99.90;;;;;;5074384;28;20200;-78
2023/07/16 06:50:44;;;;;;;3.38;2.55;;;17.50;99.90;;;;;;5074196;28;20197;-77
2023/07/16 06:53:11;;;;;;;5.78;2.97;;;17.60;99.90;;;;;;5074329;28;20251;-76
2023/07/16 06:55:39;;;;;;;5.93;2.95;;;17.50;99.90;;;;;;5074219;28;20330;-75
2023/07/16 06:58:06;;;;;;;3.80;2.60;;;17.60;99.90;;;;;;5073823;28;20295;-77
2023/07/16 07:00:33;;;;;;;6.72;2.72;;;17.60;99.90;;;;;;5074158;28;20201;-76
2023/07/16 07:02:59;;;;;;;8.65;2.90;;;17.80;99.90;;;;;;5073937;28;20201;-77
2023/07/16 07:05:26;;;;;;;3.58;2.70;;;17.80;99.90;;;;;;5073369;28;20204;-76
2023/07/16 07:07:53;;;;;;;8.32;2.97;;;17.90;99.90;;;;;;5074114;28;20197;-76
2023/07/16 07:10:19;;;;;;;8.52;2.65;;;17.90;99.90;;;;;;5073811;28;20204;-75
2023/07/16 07:12:47;;;;;;;7.38;2.55;;;17.90;99.90;;;;;;5073908;28;20259;-77
2023/07/16 07:15:14;;;;;;;5.75;2.58;;;18.00;99.90;;;;;;5073760;28;20205;-77
2023/07/16 07:17:46;;;;;;;9.30;2.95;;;18.20;99.90;;;;;;5073995;28;20197;-80
2023/07/16 07:20:14;;;;;;;8.98;3.22;;;18.20;99.90;;;;;;5074074;28;20282;-80
2023/07/16 07:22:40;;;;;;;6.15;2.70;;;18.30;99.90;;;;;;5073909;28;20205;-80
2023/07/16 07:25:07;;;;;;;4.82;2.38;;;18.40;99.90;;;;;;5073634;28;20201;-80
2023/07/16 07:27:34;;;;;;;8.15;2.88;;;18.60;99.90;;;;;;5074042;28;20193;-80
2023/07/16 07:30:02;;;;;;;5.45;2.60;;;18.70;99.90;;;;;;5073824;28;20220;-80
2023/07/16 07:32:30;;;;;;;4.72;2.63;;;18.80;99.90;;;;;;5073741;28;20246;-79
2023/07/16 07:34:57;;;;;;;7.45;2.55;;;18.80;99.90;;;;;;5073949;28;20246;-78
2023/07/16 07:37:23;;;;;;;8.30;2.70;;;19.10;99.90;;;;;;5073761;28;20242;-79
2023/07/16 07:39:53;;;;;;;6.45;2.55;;;19.10;99.90;;;;;;5073756;28;20224;-79
2023/07/16 07:42:20;;;;;;;4.55;2.60;;;19.20;99.90;;;;;;5072803;28;20204;-81
2023/07/16 07:44:46;;;;;;;6.15;2.70;;;19.00;99.90;;;;;;5073800;28;20201;-80
2023/07/16 07:47:14;;;;;;;7.32;2.58;;;18.80;99.90;;;;;;5073692;28;20201;-80
2023/07/16 07:49:41;;;;;;;5.88;2.50;;;18.90;99.90;;;;;;5073678;28;20676;-79
2023/07/16 07:52:09;;;;;;;6.38;2.92;;;18.80;99.90;;;;;;5073847;28;20656;-80
2023/07/16 07:54:35;;;;;;;7.05;2.90;;;18.60;99.90;;;;;;5077066;28;20196;-79
2023/07/16 07:57:03;;;;;;;4.72;2.85;;;18.50;99.90;;;;;;5077726;28;20227;-77
2023/07/16 07:59:30;;;;;;;4.28;2.70;;;18.70;99.90;;;;;;5062095;28;20225;-78
2023/07/16 08:01:57;;;;;;;5.05;2.70;;;19.10;99.90;;;;;;5058428;28;20193;-78
2023/07/16 08:04:25;;;;;;;7.65;2.80;;;19.30;99.90;;;;;;5073891;28;20197;-79
2023/07/16 08:06:54;;;;;;;6.80;2.90;;;18.90;99.90;;;;;;5072784;28;20255;-79
2023/07/16 08:09:20;;;;;;;6.68;2.80;;;19.30;99.90;;;;;;5072932;28;20201;-78
2023/07/16 08:11:47;;;;;;;9.98;2.70;;;19.20;99.90;;;;;;5072479;28;20243;-79
2023/07/16 08:14:13;;;;;;;6.60;2.67;;;19.10;99.90;;;;;;5072487;28;20201;-80
2023/07/16 08:16:40;;;;;;;7.00;2.53;;;19.10;99.90;;;;;;5071774;28;20652;-78
2023/07/16 08:19:07;;;;;;;4.70;2.60;;;19.10;99.90;;;;;;5072541;28;20267;-75
2023/07/16 08:21:35;;;;;;;4.88;2.78;;;19.20;99.90;;;;;;5072192;28;20205;-75
2023/07/16 08:24:02;;;;;;;5.38;2.53;;;19.10;99.90;;;;;;5072257;28;20205;-77
2023/07/16 08:26:29;;;;;;;8.73;2.75;;;19.00;99.90;;;;;;5072228;28;20201;-74
2023/07/16 08:28:55;;;;;;;6.72;3.05;;;19.20;99.90;;;;;;5071947;28;20266;-75
2023/07/16 08:31:22;;;;;;;5.10;2.53;;;19.30;99.90;;;;;;5072807;28;20201;-75
2023/07/16 08:33:48;;;;;;;6.80;2.80;;;19.50;99.90;;;;;;5072583;28;20258;-74
2023/07/16 08:36:15;;;;;;;8.35;3.20;;;20.00;99.90;;;;;;5072778;28;20652;-75
2023/07/16 08:38:43;;;;;;;6.30;3.38;;;19.70;99.90;;;;;;5072513;28;20228;-75
2023/07/16 08:41:10;;;;;;;4.03;2.45;;;20.00;99.90;;;;;;5072454;28;20201;-76
2023/07/16 08:43:36;;;;;;;4.63;2.50;;;20.50;99.90;;;;;;5072696;28;20258;-76
2023/07/16 08:46:03;;;;;;;4.10;2.30;;;20.50;99.90;;;;;;5072446;28;20733;-76
2023/07/16 08:48:30;;;;;;;3.70;2.40;;;20.90;99.90;;;;;;5072576;28;20197;-75
2023/07/16 08:50:58;;;;;;;7.15;2.95;;;21.30;99.90;;;;;;5071539;28;20258;-79
2023/07/16 08:53:24;;;;;;;5.03;2.58;;;21.30;99.90;;;;;;5072214;28;20246;-81
2023/07/16 08:55:52;;;;;;;5.38;2.78;;;20.90;99.90;;;;;;5072058;28;20201;-79
2023/07/16 08:58:22;;;;;;;5.50;2.42;;;20.40;99.90;;;;;;5072440;28;20219;-81
2023/07/16 09:00:49;;;;;;;5.15;2.80;;;20.10;99.90;;;;;;5072074;28;20204;-81
2023/07/16 09:03:17;;;;;;;7.05;2.72;;;20.40;99.90;;;;;;5072467;28;20258;-81
2023/07/16 09:05:44;;;;;;;6.25;2.72;;;20.90;99.90;;;;;;5072392;28;20200;-80
2023/07/16 09:08:13;;;;;;;4.22;2.50;;;21.20;99.90;;;;;;5072202;28;20209;-81
2023/07/16 09:10:41;;;;;;;4.05;2.30;;;21.10;99.90;;;;;;5072532;28;20284;-81
2023/07/16 09:13:09;;;;;;;5.13;2.88;;;21.70;99.90;;;;;;5072393;28;20246;-80
2023/07/16 09:15:37;;;;;;;3.67;2.28;;;22.00;99.90;;;;;;5072569;28;20278;-80
2023/07/16 09:18:04;;;;;;;3.65;2.10;;;22.10;99.90;;;;;;5072059;28;20258;-81
2023/07/16 09:20:31;;;;;;;4.70;2.42;;;21.60;99.90;;;;;;5072013;28;20700;-80
2023/07/16 09:22:58;;;;;;;5.65;2.53;;;21.40;99.90;;;;;;5071844;28;20200;-80
2023/07/16 09:25:28;;;;;;;4.18;2.63;;;21.00;99.90;;;;;;5072336;28;20208;-80
2023/07/16 09:27:55;;;;;;;8.00;3.05;;;21.40;99.90;;;;;;5072221;28;20703;-78
2023/07/16 09:30:23;;;;;;;4.40;2.50;;;21.60;99.90;;;;;;5073678;28;20922;-79
2023/07/16 09:32:50;;;;;;;6.55;2.95;;;21.20;99.90;;;;;;5073685;28;20201;-73
2023/07/16 09:35:18;;;;;;;5.20;2.60;;;21.80;99.90;;;;;;5073064;28;20200;-72
2023/07/16 09:37:44;;;;;;;3.83;2.60;;;21.90;99.90;;;;;;5073290;28;20258;-72
2023/07/16 09:40:12;;;;;;;5.40;2.50;;;22.20;99.90;;;;;;5072562;28;20228;-72
2023/07/16 09:42:40;;;;;;;3.90;2.03;;;23.10;99.90;;;;;;5073205;28;20258;-72
2023/07/16 09:45:08;;;;;;;5.85;2.67;;;22.80;99.90;;;;;;5073362;28;20542;-72
2023/07/16 09:47:36;;;;;;;8.88;2.40;;;22.40;99.90;;;;;;5073125;28;20197;-73
2023/07/16 09:50:05;;;;;;;6.45;2.35;;;22.50;99.90;;;;;;5073011;28;20781;-72
2023/07/16 09:52:32;;;;;;;6.55;2.78;;;22.50;99.90;;;;;;5072537;28;20568;-72
2023/07/16 09:55:02;;;;;;;5.95;2.58;;;22.70;99.90;;;;;;5073116;28;20201;-73
2023/07/16 09:57:33;;;;;;;6.20;2.40;;;22.70;99.90;;;;;;5072884;28;20225;-73
2023/07/16 10:00:04;;;;;;;4.82;2.35;;;23.60;99.90;;;;;;5072636;28;20228;-72
2023/07/16 10:02:33;;;;;;;6.35;2.78;;;23.90;99.90;;;;;;5072651;28;20211;-73
2023/07/16 10:05:11;;;;;;;9.90;2.78;;;23.40;99.90;;;;;;5072627;28;20242;-73
2023/07/16 10:07:38;;;;;;;5.05;2.55;;;22.90;99.90;;;;;;5072637;28;20269;-73
2023/07/16 10:10:09;;;;;;;4.60;2.30;;;22.70;99.90;;;;;;5072487;28;20599;-73
2023/07/16 10:12:36;;;;;;;4.00;2.35;;;22.90;99.90;;;;;;5072749;28;20258;-73
2023/07/16 10:15:04;;;;;;;3.42;2.58;;;23.10;99.90;;;;;;5072778;28;20209;-73
2023/07/16 10:17:32;;;;;;;4.93;2.33;;;22.90;99.90;;;;;;5072272;28;20267;-72
2023/07/16 10:20:04;;;;;;;4.35;2.35;;;22.90;99.90;;;;;;5072764;28;20232;-73
2023/07/16 10:22:36;;;;;;;8.40;2.35;;;23.20;99.90;;;;;;5072630;28;20622;-73
2023/07/16 10:25:04;;;;;;;4.95;2.40;;;22.50;99.90;;;;;;5072556;28;20283;-74
2023/07/16 10:27:32;;;;;;;5.53;2.63;;;23.00;99.90;;;;;;5072304;28;20253;-73
2023/07/16 10:30:02;;;;;;;4.38;2.17;;;22.90;99.90;;;;;;5072526;28;20205;-73
2023/07/16 10:32:30;;;;;;;4.18;2.53;;;22.30;99.90;;;;;;5072519;28;20199;-73
2023/07/16 10:34:57;;;;;;;4.28;2.95;;;22.70;99.90;;;;;;5072621;28;20204;-72
2023/07/16 10:37:26;;;;;;;5.85;2.60;;;22.30;99.90;;;;;;5072456;28;20266;-72
2023/07/16 10:39:54;;;;;;;5.60;3.00;;;22.20;99.90;;;;;;5070591;28;20221;-73
2023/07/16 10:42:22;;;;;;;4.68;2.67;;;22.80;99.90;;;;;;5072489;28;20197;-73
2023/07/16 10:44:51;;;;;;;5.25;2.60;;;23.20;99.90;;;;;;5072287;28;20263;-74
2023/07/16 10:47:23;;;;;;;5.00;2.45;;;23.70;99.90;;;;;;5072097;28;20205;-74
2023/07/16 10:49:51;;;;;;;6.47;2.72;;;24.20;99.90;;;;;;5072120;28;20205;-73
2023/07/16 10:52:18;;;;;;;3.78;2.25;;;24.50;99.90;;;;;;5071691;28;20271;-74
2023/07/16 10:54:47;;;;;;;4.75;2.22;;;24.70;99.90;;;;;;5071984;28;20197;-74
2023/07/16 10:57:16;;;;;;;3.88;2.30;;;24.70;99.90;;;;;;5071649;28;20313;-74
2023/07/16 10:59:43;;;;;;;3.78;2.85;;;24.70;99.90;;;;;;5071902;28;20274;-74
2023/07/16 11:02:13;;;;;;;6.30;3.05;;;24.20;99.90;;;;;;5072835;28;20676;-75
2023/07/16 11:04:40;;;;;;;4.75;2.60;;;23.90;99.90;;;;;;5073291;28;20208;-75
2023/07/16 11:07:08;;;;;;;5.30;2.42;;;24.30;99.90;;;;;;5073594;28;20193;-75
2023/07/16 11:09:35;;;;;;;3.80;2.40;;;24.00;99.90;;;;;;5074019;28;20566;-75
2023/07/16 11:12:11;;;;;;;4.38;2.38;;;23.60;99.90;;;;;;5074322;28;20680;-75
2023/07/16 11:14:38;;;;;;;5.75;2.63;;;23.30;99.90;;;;;;5073911;28;20204;-75
2023/07/16 11:17:07;;;;;;;7.07;2.80;;;23.20;99.90;;;;;;5073828;28;20193;-75
2023/07/16 11:19:34;;;;;;;4.28;2.55;;;23.80;99.90;;;;;;5073622;28;20316;-78
2023/07/16 11:22:01;;;;;;;3.88;2.25;;;25.20;99.90;;;;;;5073959;28;20201;-78
2023/07/16 11:24:28;;;;;;;5.20;2.63;;;25.20;99.90;;;;;;5074507;28;20213;-79
2023/07/16 11:26:57;;;;;;;6.05;2.38;;;25.70;99.90;;;;;;5073705;28;20204;-78
2023/07/16 11:29:25;;;;;;;4.05;2.13;;;25.50;99.90;;;;;;5073817;28;20247;-76
2023/07/16 11:31:52;;;;;;;3.40;2.53;;;26.40;99.90;;;;;;5073528;28;20205;-75
2023/07/16 11:34:21;;;;;;;4.03;2.28;;;27.10;99.90;;;;;;5073785;28;20193;-75
2023/07/16 11:36:48;;;;;;;3.40;2.10;;;27.40;99.90;;;;;;5073684;28;20197;-75
2023/07/16 11:39:14;;;;;;;5.43;2.25;;;28.40;97.40;;;;;;5073382;28;20777;-74
2023/07/16 11:41:41;;;;;;;3.28;2.20;;;28.10;96.80;;;;;;5073647;28;20197;-76
2023/07/16 11:44:09;;;;;;;3.55;2.47;;;28.30;95.00;;;;;;5073425;28;20595;-76
2023/07/16 11:46:37;;;;;;;4.50;2.30;;;27.40;95.50;;;;;;5073400;28;20208;-75
2023/07/16 11:49:04;;;;;;;4.65;2.40;;;27.20;94.60;;;;;;5073459;28;20251;-76
2023/07/16 11:51:31;;;;;;;5.78;2.47;;;27.50;95.30;;;;;;5073294;28;20689;-75
2023/07/16 11:53:58;;;;;;;3.53;2.17;;;26.60;95.60;;;;;;5073322;28;20579;-75
2023/07/16 11:56:24;;;;;;;3.20;2.25;;;26.20;96.20;;;;;;5072993;28;20228;-74
2023/07/16 11:58:51;;;;;;;3.42;2.20;;;26.00;96.50;;;;;;5073062;28;20648;-74
2023/07/16 12:01:17;;;;;;;4.15;2.25;;;25.50;96.90;;;;;;5073059;28;20228;-74
2023/07/16 12:03:45;;;;;;;3.05;2.13;;;24.70;98.20;;;;;;5073548;28;20201;-74
2023/07/16 12:06:12;;;;;;;4.40;2.30;;;25.80;98.50;;;;;;5073203;28;20204;-74
2023/07/16 12:08:39;;;;;;;5.60;2.13;;;26.40;96.10;;;;;;5073141;28;20270;-75
2023/07/16 12:11:06;;;;;;;5.05;2.50;;;27.20;96.00;;;;;;5073097;28;20200;-76
2023/07/16 12:13:32;;;;;;;3.90;2.47;;;28.40;94.50;;;;;;5072907;28;20197;-75
2023/07/16 12:15:59;;;;;;;3.63;2.50;;;28.90;93.30;;;;;;5073173;28;20591;-75
2023/07/16 12:18:26;;;;;;;5.65;2.38;;;28.40;93.00;;;;;;5072938;28;20652;-75
2023/07/16 12:20:54;;;;;;;3.60;2.30;;;29.00;91.40;;;;;;5073137;28;20224;-76
2023/07/16 12:23:21;;;;;;;3.13;2.40;;;29.20;91.10;;;;;;5060314;28;20198;-76
2023/07/16 12:25:49;;;;;;;2.47;2.13;;;27.90;90.70;;;;;;5053267;28;20255;-75
2023/07/16 12:28:15;;;;;;;4.20;2.15;;;28.60;90.60;;;;;;5076851;28;20201;-73
2023/07/16 12:30:42;;;;;;;3.33;2.15;;;28.90;88.70;;;;;;5092965;28;20204;-73
2023/07/16 12:33:09;;;;;;;3.38;2.17;;;29.40;87.30;;;;;;5080168;28;20193;-73
2023/07/16 12:35:35;;;;;;;2.85;2.30;;;29.20;85.60;;;;;;5072599;28;20200;-73
2023/07/16 12:38:03;;;;;;;3.60;2.30;;;29.00;88.40;;;;;;5072565;28;20193;-73
2023/07/16 12:40:30;;;;;;;5.75;2.20;;;29.90;83.60;;;;;;5071874;28;20278;-73
2023/07/16 12:42:57;;;;;;;3.08;2.10;;;30.20;81.70;;;;;;5072095;28;20201;-73
2023/07/16 12:45:24;;;;;;;3.03;2.00;;;29.60;79.20;;;;;;5072691;28;20569;-72
2023/07/16 12:47:50;;;;;;;4.97;2.25;;;29.00;81.70;;;;;;5072880;28;20197;-72